sensor_id;sensor_type;location;lat;lon;timestamp;P1;durP1;ratioP1;P2;durP2;ratioP2
6033;SDS011;3045;43.226;27.858;2022-07-19T00:02:06;2.50;;;2.30;;
6033;SDS011;3045;43.226;27.858;2022-07-19T00:04:33;2.43;;;2.33;;
6033;SDS011;3045;43.226;27.858;2022-07-19T00:07:01;2.63;;;2.43;;
6033;SDS011;3045;43.226;27.858;2022-07-19T00:09:28;3.07;;;2.73;;
6033;SDS011;3045;43.226;27.858;2022-07-19T00:11:57;3.43;;;3.17;;
6033;SDS011;3045;43.226;27.858;2022-07-19T00:14:24;4.43;;;3.50;;
6033;SDS011;3045;43.226;27.858;2022-07-19T00:16:51;4.63;;;4.17;;
6033;SDS011;3045;43.226;27.858;2022-07-19T00:19:18;10.43;;;4.40;;
6033;SDS011;3045;43.226;27.858;2022-07-19T00:21:45;7.17;;;6.57;;
6033;SDS011;3045;43.226;27.858;2022-07-19T00:24:12;9.07;;;7.93;;
6033;SDS011;3045;43.226;27.858;2022-07-19T00:26:39;10.13;;;9.30;;
6033;SDS011;3045;43.226;27.858;2022-07-19T00:29:07;10.63;;;9.63;;
6033;SDS011;3045;43.226;27.858;2022-07-19T00:31:34;12.07;;;10.60;;
6033;SDS011;3045;43.226;27.858;2022-07-19T00:34:01;12.37;;;10.23;;
6033;SDS011;3045;43.226;27.858;2022-07-19T00:36:28;13.27;;;9.97;;
6033;SDS011;3045;43.226;27.858;2022-07-19T00:38:55;16.07;;;10.97;;
6033;SDS011;3045;43.226;27.858;2022-07-19T00:41:22;9.40;;;8.60;;
6033;SDS011;3045;43.226;27.858;2022-07-19T00:43:49;11.30;;;9.30;;
6033;SDS011;3045;43.226;27.858;2022-07-19T00:46:19;9.77;;;8.90;;
6033;SDS011;3045;43.226;27.858;2022-07-19T00:48:47;21.20;;;9.47;;
6033;SDS011;3045;43.226;27.858;2022-07-19T00:51:15;10.43;;;9.47;;
6033;SDS011;3045;43.226;27.858;2022-07-19T00:53:43;13.37;;;9.40;;
6033;SDS011;3045;43.226;27.858;2022-07-19T00:56:12;14.73;;;8.80;;
6033;SDS011;3045;43.226;27.858;2022-07-19T00:58:39;15.00;;;9.07;;
6033;SDS011;3045;43.226;27.858;2022-07-19T01:01:08;9.37;;;7.93;;
6033;SDS011;3045;43.226;27.858;2022-07-19T01:03:38;11.80;;;6.90;;
6033;SDS011;3045;43.226;27.858;2022-07-19T01:06:07;10.80;;;7.10;;
6033;SDS011;3045;43.226;27.858;2022-07-19T01:08:35;8.40;;;7.53;;
6033;SDS011;3045;43.226;27.858;2022-07-19T01:11:03;12.43;;;7.00;;
6033;SDS011;3045;43.226;27.858;2022-07-19T01:13:31;8.70;;;7.60;;
6033;SDS011;3045;43.226;27.858;2022-07-19T01:15:58;8.83;;;7.77;;
6033;SDS011;3045;43.226;27.858;2022-07-19T01:18:25;10.83;;;8.00;;
6033;SDS011;3045;43.226;27.858;2022-07-19T01:20:54;11.10;;;8.93;;
6033;SDS011;3045;43.226;27.858;2022-07-19T01:23:24;11.03;;;9.70;;
6033;SDS011;3045;43.226;27.858;2022-07-19T01:25:51;15.90;;;8.63;;
6033;SDS011;3045;43.226;27.858;2022-07-19T01:28:18;13.17;;;10.03;;
6033;SDS011;3045;43.226;27.858;2022-07-19T01:30:45;13.17;;;11.03;;
6033;SDS011;3045;43.226;27.858;2022-07-19T01:33:12;14.43;;;10.27;;
6033;SDS011;3045;43.226;27.858;2022-07-19T01:35:39;10.17;;;9.13;;
6033;SDS011;3045;43.226;27.858;2022-07-19T01:38:06;9.80;;;8.83;;
6033;SDS011;3045;43.226;27.858;2022-07-19T01:40:34;10.77;;;9.63;;
6033;SDS011;3045;43.226;27.858;2022-07-19T01:43:01;8.93;;;8.03;;
6033;SDS011;3045;43.226;27.858;2022-07-19T01:45:28;10.80;;;8.57;;
6033;SDS011;3045;43.226;27.858;2022-07-19T01:47:55;8.10;;;7.60;;
6033;SDS011;3045;43.226;27.858;2022-07-19T01:50:22;7.17;;;6.57;;
6033;SDS011;3045;43.226;27.858;2022-07-19T01:52:48;6.77;;;6.27;;
6033;SDS011;3045;43.226;27.858;2022-07-19T01:55:15;5.77;;;5.43;;
6033;SDS011;3045;43.226;27.858;2022-07-19T01:57:44;8.30;;;5.40;;
6033;SDS011;3045;43.226;27.858;2022-07-19T02:00:12;5.43;;;4.93;;
6033;SDS011;3045;43.226;27.858;2022-07-19T02:02:39;7.87;;;5.50;;
6033;SDS011;3045;43.226;27.858;2022-07-19T02:05:07;7.60;;;5.10;;
6033;SDS011;3045;43.226;27.858;2022-07-19T02:07:34;7.43;;;6.03;;
6033;SDS011;3045;43.226;27.858;2022-07-19T02:10:01;5.10;;;4.70;;
6033;SDS011;3045;43.226;27.858;2022-07-19T02:12:28;5.30;;;4.80;;
6033;SDS011;3045;43.226;27.858;2022-07-19T02:14:57;5.60;;;4.80;;
6033;SDS011;3045;43.226;27.858;2022-07-19T02:17:24;4.60;;;4.30;;
6033;SDS011;3045;43.226;27.858;2022-07-19T02:19:51;5.33;;;4.73;;
6033;SDS011;3045;43.226;27.858;2022-07-19T02:22:18;6.90;;;5.03;;
6033;SDS011;3045;43.226;27.858;2022-07-19T02:24:44;10.70;;;5.30;;
6033;SDS011;3045;43.226;27.858;2022-07-19T02:27:11;6.63;;;4.40;;
6033;SDS011;3045;43.226;27.858;2022-07-19T02:29:38;7.17;;;5.30;;
6033;SDS011;3045;43.226;27.858;2022-07-19T02:32:07;10.60;;;5.67;;
6033;SDS011;3045;43.226;27.858;2022-07-19T02:34:34;7.00;;;4.63;;
6033;SDS011;3045;43.226;27.858;2022-07-19T02:37:01;5.07;;;4.63;;
6033;SDS011;3045;43.226;27.858;2022-07-19T02:39:29;5.47;;;5.07;;
6033;SDS011;3045;43.226;27.858;2022-07-19T02:41:56;6.30;;;5.80;;
6033;SDS011;3045;43.226;27.858;2022-07-19T02:44:23;7.53;;;5.10;;
6033;SDS011;3045;43.226;27.858;2022-07-19T02:46:50;6.23;;;4.77;;
6033;SDS011;3045;43.226;27.858;2022-07-19T02:49:18;13.57;;;5.27;;
6033;SDS011;3045;43.226;27.858;2022-07-19T02:51:46;8.07;;;5.00;;
6033;SDS011;3045;43.226;27.858;2022-07-19T02:54:13;5.70;;;4.60;;
6033;SDS011;3045;43.226;27.858;2022-07-19T02:56:40;5.77;;;5.30;;
6033;SDS011;3045;43.226;27.858;2022-07-19T02:59:07;6.13;;;4.67;;
6033;SDS011;3045;43.226;27.858;2022-07-19T03:01:34;10.30;;;5.30;;
6033;SDS011;3045;43.226;27.858;2022-07-19T03:04:01;5.33;;;5.00;;
6033;SDS011;3045;43.226;27.858;2022-07-19T03:06:29;8.60;;;6.67;;
6033;SDS011;3045;43.226;27.858;2022-07-19T03:08:56;6.90;;;6.27;;
6033;SDS011;3045;43.226;27.858;2022-07-19T03:11:23;7.93;;;6.20;;
6033;SDS011;3045;43.226;27.858;2022-07-19T03:13:50;13.43;;;6.63;;
6033;SDS011;3045;43.226;27.858;2022-07-19T03:16:17;6.73;;;6.13;;
6033;SDS011;3045;43.226;27.858;2022-07-19T03:18:44;6.10;;;5.70;;
6033;SDS011;3045;43.226;27.858;2022-07-19T03:21:11;7.77;;;6.03;;
6033;SDS011;3045;43.226;27.858;2022-07-19T03:23:39;8.50;;;6.53;;
6033;SDS011;3045;43.226;27.858;2022-07-19T03:26:06;10.63;;;6.40;;
6033;SDS011;3045;43.226;27.858;2022-07-19T03:28:33;12.27;;;6.33;;
6033;SDS011;3045;43.226;27.858;2022-07-19T03:31:00;6.33;;;5.73;;
6033;SDS011;3045;43.226;27.858;2022-07-19T03:33:27;6.50;;;5.93;;
6033;SDS011;3045;43.226;27.858;2022-07-19T03:35:54;10.23;;;5.63;;
6033;SDS011;3045;43.226;27.858;2022-07-19T03:38:21;11.57;;;6.10;;
6033;SDS011;3045;43.226;27.858;2022-07-19T03:40:49;7.60;;;5.60;;
6033;SDS011;3045;43.226;27.858;2022-07-19T03:43:16;8.77;;;5.50;;
6033;SDS011;3045;43.226;27.858;2022-07-19T03:45:44;11.63;;;6.43;;
6033;SDS011;3045;43.226;27.858;2022-07-19T03:48:12;14.13;;;6.37;;
6033;SDS011;3045;43.226;27.858;2022-07-19T03:50:39;16.53;;;6.87;;
6033;SDS011;3045;43.226;27.858;2022-07-19T03:53:06;13.07;;;6.73;;
6033;SDS011;3045;43.226;27.858;2022-07-19T03:55:33;15.40;;;7.23;;
6033;SDS011;3045;43.226;27.858;2022-07-19T03:58:01;18.27;;;8.27;;
6033;SDS011;3045;43.226;27.858;2022-07-19T04:00:29;12.50;;;9.13;;
6033;SDS011;3045;43.226;27.858;2022-07-19T04:02:56;11.70;;;8.50;;
6033;SDS011;3045;43.226;27.858;2022-07-19T04:05:23;15.57;;;9.70;;
6033;SDS011;3045;43.226;27.858;2022-07-19T04:07:50;12.77;;;9.40;;
6033;SDS011;3045;43.226;27.858;2022-07-19T04:10:17;12.13;;;9.00;;
6033;SDS011;3045;43.226;27.858;2022-07-19T04:12:44;11.77;;;7.78;;
6033;SDS011;3045;43.226;27.858;2022-07-19T04:15:12;9.02;;;8.10;;
6033;SDS011;3045;43.226;27.858;2022-07-19T04:17:39;8.93;;;8.13;;
6033;SDS011;3045;43.226;27.858;2022-07-19T04:20:06;15.23;;;8.55;;
6033;SDS011;3045;43.226;27.858;2022-07-19T04:22:34;8.98;;;8.13;;
6033;SDS011;3045;43.226;27.858;2022-07-19T04:25:01;13.27;;;8.40;;
6033;SDS011;3045;43.226;27.858;2022-07-19T04:27:28;22.27;;;8.55;;
6033;SDS011;3045;43.226;27.858;2022-07-19T04:29:55;12.23;;;8.60;;
6033;SDS011;3045;43.226;27.858;2022-07-19T04:32:24;8.95;;;8.15;;
6033;SDS011;3045;43.226;27.858;2022-07-19T04:34:52;12.35;;;7.97;;
6033;SDS011;3045;43.226;27.858;2022-07-19T04:37:19;9.23;;;7.55;;
6033;SDS011;3045;43.226;27.858;2022-07-19T04:39:46;21.67;;;8.23;;
6033;SDS011;3045;43.226;27.858;2022-07-19T04:42:13;9.18;;;7.38;;
6033;SDS011;3045;43.226;27.858;2022-07-19T04:44:43;11.82;;;7.95;;
6033;SDS011;3045;43.226;27.858;2022-07-19T04:47:10;8.48;;;6.75;;
6033;SDS011;3045;43.226;27.858;2022-07-19T04:49:38;7.40;;;6.50;;
6033;SDS011;3045;43.226;27.858;2022-07-19T04:52:05;9.57;;;6.85;;
6033;SDS011;3045;43.226;27.858;2022-07-19T04:54:32;8.57;;;6.70;;
6033;SDS011;3045;43.226;27.858;2022-07-19T04:56:59;15.60;;;6.07;;
6033;SDS011;3045;43.226;27.858;2022-07-19T04:59:26;82.32;;;10.00;;
6033;SDS011;3045;43.226;27.858;2022-07-19T05:01:53;17.40;;;6.57;;
6033;SDS011;3045;43.226;27.858;2022-07-19T05:04:20;12.73;;;6.93;;
6033;SDS011;3045;43.226;27.858;2022-07-19T05:06:49;8.63;;;6.60;;
6033;SDS011;3045;43.226;27.858;2022-07-19T05:09:22;13.00;;;8.65;;
6033;SDS011;3045;43.226;27.858;2022-07-19T05:11:49;14.13;;;8.55;;
6033;SDS011;3045;43.226;27.858;2022-07-19T05:14:16;12.80;;;8.13;;
6033;SDS011;3045;43.226;27.858;2022-07-19T05:16:44;11.65;;;7.80;;
6033;SDS011;3045;43.226;27.858;2022-07-19T05:19:11;12.02;;;7.95;;
6033;SDS011;3045;43.226;27.858;2022-07-19T05:21:47;11.93;;;9.02;;
6033;SDS011;3045;43.226;27.858;2022-07-19T05:24:34;20.52;;;7.70;;
6033;SDS011;3045;43.226;27.858;2022-07-19T05:27:11;8.80;;;7.32;;
6033;SDS011;3045;43.226;27.858;2022-07-19T05:32:58;17.02;;;7.75;;
6033;SDS011;3045;43.226;27.858;2022-07-19T05:35:24;15.45;;;7.43;;
6033;SDS011;3045;43.226;27.858;2022-07-19T05:37:51;31.52;;;8.70;;
6033;SDS011;3045;43.226;27.858;2022-07-19T05:40:20;14.35;;;7.00;;
6033;SDS011;3045;43.226;27.858;2022-07-19T05:42:46;12.85;;;6.18;;
6033;SDS011;3045;43.226;27.858;2022-07-19T05:45:13;12.07;;;6.25;;
6033;SDS011;3045;43.226;27.858;2022-07-19T05:47:40;16.35;;;6.60;;
6033;SDS011;3045;43.226;27.858;2022-07-19T05:50:07;11.18;;;6.63;;
6033;SDS011;3045;43.226;27.858;2022-07-19T05:52:35;8.95;;;6.55;;
6033;SDS011;3045;43.226;27.858;2022-07-19T05:55:02;6.43;;;5.68;;
6033;SDS011;3045;43.226;27.858;2022-07-19T05:57:30;10.15;;;6.47;;
6033;SDS011;3045;43.226;27.858;2022-07-19T05:59:57;6.70;;;6.10;;
6033;SDS011;3045;43.226;27.858;2022-07-19T06:02:24;7.47;;;5.75;;
6033;SDS011;3045;43.226;27.858;2022-07-19T06:04:51;8.13;;;5.13;;
6033;SDS011;3045;43.226;27.858;2022-07-19T06:07:18;10.02;;;4.63;;
6033;SDS011;3045;43.226;27.858;2022-07-19T06:09:45;10.40;;;4.18;;
6033;SDS011;3045;43.226;27.858;2022-07-19T06:12:12;6.85;;;3.92;;
6033;SDS011;3045;43.226;27.858;2022-07-19T06:14:40;6.53;;;4.40;;
6033;SDS011;3045;43.226;27.858;2022-07-19T06:17:07;8.70;;;3.83;;
6033;SDS011;3045;43.226;27.858;2022-07-19T06:19:34;7.07;;;3.50;;
6033;SDS011;3045;43.226;27.858;2022-07-19T06:22:01;12.45;;;3.67;;
6033;SDS011;3045;43.226;27.858;2022-07-19T06:24:28;7.05;;;3.85;;
6033;SDS011;3045;43.226;27.858;2022-07-19T06:27:00;8.05;;;3.42;;
6033;SDS011;3045;43.226;27.858;2022-07-19T06:29:27;15.40;;;4.15;;
6033;SDS011;3045;43.226;27.858;2022-07-19T06:31:55;9.18;;;3.67;;
6033;SDS011;3045;43.226;27.858;2022-07-19T06:34:22;1.50;;;1.40;;
6033;SDS011;3045;43.226;27.858;2022-07-19T06:36:49;10.93;;;8.65;;
6033;SDS011;3045;43.226;27.858;2022-07-19T06:39:16;4.85;;;2.20;;
6033;SDS011;3045;43.226;27.858;2022-07-19T06:41:43;4.82;;;3.63;;
6033;SDS011;3045;43.226;27.858;2022-07-19T06:44:11;15.68;;;4.10;;
6033;SDS011;3045;43.226;27.858;2022-07-19T06:46:41;5.63;;;3.42;;
6033;SDS011;3045;43.226;27.858;2022-07-19T06:49:10;10.57;;;4.43;;
6033;SDS011;3045;43.226;27.858;2022-07-19T06:51:37;5.57;;;3.30;;
6033;SDS011;3045;43.226;27.858;2022-07-19T06:54:03;7.47;;;3.40;;
6033;SDS011;3045;43.226;27.858;2022-07-19T06:56:30;9.77;;;2.97;;
6033;SDS011;3045;43.226;27.858;2022-07-19T06:58:57;5.07;;;2.10;;
6033;SDS011;3045;43.226;27.858;2022-07-19T07:01:24;6.18;;;2.95;;
6033;SDS011;3045;43.226;27.858;2022-07-19T07:03:55;4.38;;;2.38;;
6033;SDS011;3045;43.226;27.858;2022-07-19T07:06:26;5.90;;;5.07;;
6033;SDS011;3045;43.226;27.858;2022-07-19T07:08:53;3.22;;;2.65;;
6033;SDS011;3045;43.226;27.858;2022-07-19T07:11:22;7.53;;;2.85;;
6033;SDS011;3045;43.226;27.858;2022-07-19T07:13:49;5.72;;;2.75;;
6033;SDS011;3045;43.226;27.858;2022-07-19T07:16:15;2.95;;;1.73;;
6033;SDS011;3045;43.226;27.858;2022-07-19T07:18:42;10.13;;;2.70;;
6033;SDS011;3045;43.226;27.858;2022-07-19T07:21:09;2.47;;;1.92;;
6033;SDS011;3045;43.226;27.858;2022-07-19T07:23:38;6.38;;;2.70;;
6033;SDS011;3045;43.226;27.858;2022-07-19T07:26:07;4.43;;;2.08;;
6033;SDS011;3045;43.226;27.858;2022-07-19T07:28:33;5.40;;;2.20;;
6033;SDS011;3045;43.226;27.858;2022-07-19T07:31:00;1.45;;;1.35;;
6033;SDS011;3045;43.226;27.858;2022-07-19T07:33:27;2.05;;;1.23;;
6033;SDS011;3045;43.226;27.858;2022-07-19T07:35:54;1.92;;;1.15;;
6033;SDS011;3045;43.226;27.858;2022-07-19T07:38:21;2.17;;;1.40;;
6033;SDS011;3045;43.226;27.858;2022-07-19T07:40:50;1.90;;;1.17;;
6033;SDS011;3045;43.226;27.858;2022-07-19T07:43:16;2.30;;;1.40;;
6033;SDS011;3045;43.226;27.858;2022-07-19T07:45:43;2.15;;;1.10;;
6033;SDS011;3045;43.226;27.858;2022-07-19T07:48:11;5.32;;;1.23;;
6033;SDS011;3045;43.226;27.858;2022-07-19T07:50:38;2.55;;;1.00;;
6033;SDS011;3045;43.226;27.858;2022-07-19T07:53:05;1.98;;;1.40;;
6033;SDS011;3045;43.226;27.858;2022-07-19T07:55:31;1.02;;;0.93;;
6033;SDS011;3045;43.226;27.858;2022-07-19T07:58:05;2.08;;;1.42;;
6033;SDS011;3045;43.226;27.858;2022-07-19T08:00:33;2.05;;;1.15;;
6033;SDS011;3045;43.226;27.858;2022-07-19T08:03:04;1.08;;;1.00;;
6033;SDS011;3045;43.226;27.858;2022-07-19T08:05:31;1.30;;;1.20;;
6033;SDS011;3045;43.226;27.858;2022-07-19T08:07:59;1.25;;;1.10;;
6033;SDS011;3045;43.226;27.858;2022-07-19T08:10:34;0.93;;;0.90;;
6033;SDS011;3045;43.226;27.858;2022-07-19T08:13:20;2.33;;;1.00;;
6033;SDS011;3045;43.226;27.858;2022-07-19T08:15:51;1.00;;;1.00;;
6033;SDS011;3045;43.226;27.858;2022-07-19T08:18:18;5.97;;;1.25;;
6033;SDS011;3045;43.226;27.858;2022-07-19T08:21:01;42.47;;;35.25;;
6033;SDS011;3045;43.226;27.858;2022-07-19T08:23:51;4.05;;;1.60;;
6033;SDS011;3045;43.226;27.858;2022-07-19T08:26:20;2.53;;;1.30;;
6033;SDS011;3045;43.226;27.858;2022-07-19T08:28:51;3.33;;;1.50;;
6033;SDS011;3045;43.226;27.858;2022-07-19T08:31:17;4.72;;;1.50;;
6033;SDS011;3045;43.226;27.858;2022-07-19T08:33:44;4.82;;;1.52;;
6033;SDS011;3045;43.226;27.858;2022-07-19T08:36:36;1.20;;;1.10;;
6033;SDS011;3045;43.226;27.858;2022-07-19T08:39:05;1.55;;;1.45;;
6033;SDS011;3045;43.226;27.858;2022-07-19T08:41:32;1.75;;;1.65;;
6033;SDS011;3045;43.226;27.858;2022-07-19T08:44:02;6.70;;;1.80;;
6033;SDS011;3045;43.226;27.858;2022-07-19T08:46:32;5.40;;;2.25;;
6033;SDS011;3045;43.226;27.858;2022-07-19T08:49:06;4.85;;;1.50;;
6033;SDS011;3045;43.226;27.858;2022-07-19T08:51:48;1.67;;;1.10;;
6033;SDS011;3045;43.226;27.858;2022-07-19T08:54:16;1.73;;;1.50;;
6033;SDS011;3045;43.226;27.858;2022-07-19T08:56:50;1.17;;;1.17;;
6033;SDS011;3045;43.226;27.858;2022-07-19T08:59:42;3.65;;;1.45;;
6033;SDS011;3045;43.226;27.858;2022-07-19T09:02:25;1.33;;;1.25;;
6033;SDS011;3045;43.226;27.858;2022-07-19T09:05:13;4.97;;;1.40;;
6033;SDS011;3045;43.226;27.858;2022-07-19T09:07:59;4.80;;;1.60;;
6033;SDS011;3045;43.226;27.858;2022-07-19T09:10:53;1.40;;;1.30;;
6033;SDS011;3045;43.226;27.858;2022-07-19T09:13:53;1.33;;;1.33;;
6033;SDS011;3045;43.226;27.858;2022-07-19T09:17:00;2.75;;;1.10;;
6033;SDS011;3045;43.226;27.858;2022-07-19T09:19:35;1.55;;;1.45;;
6033;SDS011;3045;43.226;27.858;2022-07-19T09:22:05;4.32;;;1.70;;
6033;SDS011;3045;43.226;27.858;2022-07-19T09:24:40;2.38;;;1.55;;
6033;SDS011;3045;43.226;27.858;2022-07-19T09:27:14;3.70;;;1.65;;
6033;SDS011;3045;43.226;27.858;2022-07-19T09:29:43;1.60;;;1.50;;
6033;SDS011;3045;43.226;27.858;2022-07-19T09:32:12;1.95;;;1.38;;
6033;SDS011;3045;43.226;27.858;2022-07-19T09:34:44;2.50;;;1.60;;
6033;SDS011;3045;43.226;27.858;2022-07-19T09:37:23;5.35;;;1.55;;
6033;SDS011;3045;43.226;27.858;2022-07-19T09:39:59;1.60;;;1.50;;
6033;SDS011;3045;43.226;27.858;2022-07-19T09:42:38;1.65;;;1.55;;
6033;SDS011;3045;43.226;27.858;2022-07-19T09:45:08;4.13;;;1.52;;
6033;SDS011;3045;43.226;27.858;2022-07-19T09:47:38;2.17;;;1.10;;
6033;SDS011;3045;43.226;27.858;2022-07-19T09:50:07;6.57;;;1.50;;
6033;SDS011;3045;43.226;27.858;2022-07-19T09:52:36;1.30;;;1.30;;
6033;SDS011;3045;43.226;27.858;2022-07-19T09:55:06;2.72;;;1.40;;
6033;SDS011;3045;43.226;27.858;2022-07-19T09:57:40;1.55;;;1.33;;
6033;SDS011;3045;43.226;27.858;2022-07-19T10:00:20;2.55;;;1.30;;
6033;SDS011;3045;43.226;27.858;2022-07-19T10:05:47;6.18;;;1.50;;
6033;SDS011;3045;43.226;27.858;2022-07-19T10:08:41;3.28;;;1.42;;
6033;SDS011;3045;43.226;27.858;2022-07-19T10:11:12;7.78;;;1.77;;
6033;SDS011;3045;43.226;27.858;2022-07-19T10:13:43;1.10;;;1.10;;
6033;SDS011;3045;43.226;27.858;2022-07-19T10:16:35;2.83;;;1.40;;
6033;SDS011;3045;43.226;27.858;2022-07-19T10:19:25;2.78;;;1.23;;
6033;SDS011;3045;43.226;27.858;2022-07-19T10:22:11;5.20;;;1.80;;
6033;SDS011;3045;43.226;27.858;2022-07-19T10:24:43;2.35;;;1.20;;
6033;SDS011;3045;43.226;27.858;2022-07-19T10:27:19;1.33;;;1.27;;
6033;SDS011;3045;43.226;27.858;2022-07-19T10:30:25;1.30;;;1.27;;
6033;SDS011;3045;43.226;27.858;2022-07-19T10:33:26;9.02;;;1.40;;
6033;SDS011;3045;43.226;27.858;2022-07-19T10:42:11;1.60;;;1.50;;
6033;SDS011;3045;43.226;27.858;2022-07-19T10:48:07;1.63;;;1.52;;
6033;SDS011;3045;43.226;27.858;2022-07-19T10:51:32;1.50;;;1.40;;
6033;SDS011;3045;43.226;27.858;2022-07-19T10:54:06;2.15;;;1.35;;
6033;SDS011;3045;43.226;27.858;2022-07-19T10:56:40;1.42;;;1.35;;
6033;SDS011;3045;43.226;27.858;2022-07-19T10:59:31;4.22;;;1.38;;
6033;SDS011;3045;43.226;27.858;2022-07-19T11:02:06;3.40;;;1.17;;
6033;SDS011;3045;43.226;27.858;2022-07-19T11:04:47;2.70;;;1.40;;
6033;SDS011;3045;43.226;27.858;2022-07-19T11:07:21;1.42;;;1.30;;
6033;SDS011;3045;43.226;27.858;2022-07-19T11:09:50;4.03;;;1.50;;
6033;SDS011;3045;43.226;27.858;2022-07-19T11:12:25;1.40;;;1.30;;
6033;SDS011;3045;43.226;27.858;2022-07-19T11:15:12;1.58;;;1.48;;
6033;SDS011;3045;43.226;27.858;2022-07-19T11:17:59;1.23;;;1.13;;
6033;SDS011;3045;43.226;27.858;2022-07-19T11:20:31;5.22;;;1.50;;
6033;SDS011;3045;43.226;27.858;2022-07-19T11:23:01;1.52;;;1.42;;
6033;SDS011;3045;43.226;27.858;2022-07-19T11:25:30;1.42;;;1.40;;
6033;SDS011;3045;43.226;27.858;2022-07-19T11:27:59;3.17;;;1.20;;
6033;SDS011;3045;43.226;27.858;2022-07-19T11:30:27;1.17;;;1.17;;
6033;SDS011;3045;43.226;27.858;2022-07-19T11:33:01;1.30;;;1.20;;
6033;SDS011;3045;43.226;27.858;2022-07-19T11:35:31;2.20;;;1.02;;
6033;SDS011;3045;43.226;27.858;2022-07-19T11:38:14;7.13;;;1.92;;
6033;SDS011;3045;43.226;27.858;2022-07-19T11:40:41;4.80;;;1.30;;
6033;SDS011;3045;43.226;27.858;2022-07-19T11:43:08;1.40;;;1.30;;
6033;SDS011;3045;43.226;27.858;2022-07-19T11:45:40;3.17;;;1.40;;
6033;SDS011;3045;43.226;27.858;2022-07-19T11:48:09;2.00;;;1.45;;
6033;SDS011;3045;43.226;27.858;2022-07-19T11:50:36;3.80;;;1.33;;
6033;SDS011;3045;43.226;27.858;2022-07-19T11:53:07;1.35;;;1.30;;
6033;SDS011;3045;43.226;27.858;2022-07-19T11:55:35;2.10;;;2.00;;
6033;SDS011;3045;43.226;27.858;2022-07-19T11:58:06;1.33;;;1.33;;
6033;SDS011;3045;43.226;27.858;2022-07-19T12:00:35;5.80;;;1.75;;
6033;SDS011;3045;43.226;27.858;2022-07-19T12:03:04;2.42;;;1.58;;
6033;SDS011;3045;43.226;27.858;2022-07-19T12:05:35;2.88;;;1.05;;
6033;SDS011;3045;43.226;27.858;2022-07-19T12:08:42;1.45;;;1.17;;
6033;SDS011;3045;43.226;27.858;2022-07-19T12:11:17;1.85;;;1.70;;
6033;SDS011;3045;43.226;27.858;2022-07-19T12:13:50;1.58;;;1.30;;
6033;SDS011;3045;43.226;27.858;2022-07-19T12:16:18;1.63;;;1.45;;
6033;SDS011;3045;43.226;27.858;2022-07-19T12:18:48;1.40;;;1.30;;
6033;SDS011;3045;43.226;27.858;2022-07-19T12:21:20;1.50;;;1.35;;
6033;SDS011;3045;43.226;27.858;2022-07-19T12:24:16;2.60;;;1.38;;
6033;SDS011;3045;43.226;27.858;2022-07-19T12:26:58;1.50;;;1.10;;
6033;SDS011;3045;43.226;27.858;2022-07-19T12:29:30;3.00;;;1.50;;
6033;SDS011;3045;43.226;27.858;2022-07-19T12:32:00;2.25;;;1.00;;
6033;SDS011;3045;43.226;27.858;2022-07-19T12:34:40;1.42;;;0.85;;
6033;SDS011;3045;43.226;27.858;2022-07-19T12:37:19;1.60;;;0.90;;
6033;SDS011;3045;43.226;27.858;2022-07-19T12:39:59;1.45;;;0.85;;
6033;SDS011;3045;43.226;27.858;2022-07-19T12:42:35;0.98;;;0.98;;
6033;SDS011;3045;43.226;27.858;2022-07-19T12:45:08;1.55;;;1.38;;
6033;SDS011;3045;43.226;27.858;2022-07-19T12:47:46;1.88;;;1.42;;
6033;SDS011;3045;43.226;27.858;2022-07-19T12:50:18;2.25;;;1.10;;
6033;SDS011;3045;43.226;27.858;2022-07-19T12:52:46;1.10;;;1.00;;
6033;SDS011;3045;43.226;27.858;2022-07-19T12:55:15;2.90;;;1.58;;
6033;SDS011;3045;43.226;27.858;2022-07-19T12:57:42;2.92;;;1.30;;
6033;SDS011;3045;43.226;27.858;2022-07-19T13:00:13;5.00;;;1.40;;
6033;SDS011;3045;43.226;27.858;2022-07-19T13:02:44;2.67;;;1.13;;
6033;SDS011;3045;43.226;27.858;2022-07-19T13:05:17;0.90;;;0.90;;
6033;SDS011;3045;43.226;27.858;2022-07-19T13:07:51;3.25;;;1.30;;
6033;SDS011;3045;43.226;27.858;2022-07-19T13:10:20;3.55;;;1.48;;
6033;SDS011;3045;43.226;27.858;2022-07-19T13:12:47;1.08;;;1.08;;
6033;SDS011;3045;43.226;27.858;2022-07-19T13:15:14;1.10;;;1.10;;
6033;SDS011;3045;43.226;27.858;2022-07-19T13:17:41;4.93;;;1.30;;
6033;SDS011;3045;43.226;27.858;2022-07-19T13:20:09;2.10;;;1.27;;
6033;SDS011;3045;43.226;27.858;2022-07-19T13:22:37;1.55;;;1.45;;
6033;SDS011;3045;43.226;27.858;2022-07-19T13:25:06;3.42;;;1.30;;
6033;SDS011;3045;43.226;27.858;2022-07-19T13:27:38;2.95;;;1.27;;
6033;SDS011;3045;43.226;27.858;2022-07-19T13:30:05;5.03;;;1.30;;
6033;SDS011;3045;43.226;27.858;2022-07-19T13:32:32;4.20;;;1.17;;
6033;SDS011;3045;43.226;27.858;2022-07-19T13:34:59;1.15;;;1.15;;
6033;SDS011;3045;43.226;27.858;2022-07-19T13:37:26;1.08;;;1.08;;
6033;SDS011;3045;43.226;27.858;2022-07-19T13:39:53;2.75;;;1.00;;
6033;SDS011;3045;43.226;27.858;2022-07-19T13:42:20;6.40;;;1.27;;
6033;SDS011;3045;43.226;27.858;2022-07-19T13:44:48;1.67;;;0.90;;
6033;SDS011;3045;43.226;27.858;2022-07-19T13:47:18;1.83;;;1.73;;
6033;SDS011;3045;43.226;27.858;2022-07-19T13:49:45;2.85;;;1.40;;
6033;SDS011;3045;43.226;27.858;2022-07-19T13:52:12;1.38;;;1.20;;
6033;SDS011;3045;43.226;27.858;2022-07-19T13:54:39;1.98;;;1.20;;
6033;SDS011;3045;43.226;27.858;2022-07-19T13:57:06;2.40;;;1.00;;
6033;SDS011;3045;43.226;27.858;2022-07-19T13:59:34;2.60;;;1.10;;
6033;SDS011;3045;43.226;27.858;2022-07-19T14:02:02;1.38;;;1.25;;
6033;SDS011;3045;43.226;27.858;2022-07-19T14:04:29;2.75;;;2.13;;
6033;SDS011;3045;43.226;27.858;2022-07-19T14:06:57;0.95;;;0.95;;
6033;SDS011;3045;43.226;27.858;2022-07-19T14:09:24;1.27;;;1.27;;
6033;SDS011;3045;43.226;27.858;2022-07-19T14:11:51;1.00;;;0.90;;
6033;SDS011;3045;43.226;27.858;2022-07-19T14:14:18;1.00;;;1.00;;
6033;SDS011;3045;43.226;27.858;2022-07-19T14:16:46;1.08;;;1.00;;
6033;SDS011;3045;43.226;27.858;2022-07-19T14:19:18;0.80;;;0.80;;
6033;SDS011;3045;43.226;27.858;2022-07-19T14:21:45;1.38;;;1.30;;
6033;SDS011;3045;43.226;27.858;2022-07-19T14:24:12;2.58;;;1.23;;
6033;SDS011;3045;43.226;27.858;2022-07-19T14:26:39;1.38;;;1.30;;
6033;SDS011;3045;43.226;27.858;2022-07-19T14:29:06;0.98;;;0.98;;
6033;SDS011;3045;43.226;27.858;2022-07-19T14:31:33;3.03;;;1.23;;
6033;SDS011;3045;43.226;27.858;2022-07-19T14:34:01;1.20;;;1.10;;
6033;SDS011;3045;43.226;27.858;2022-07-19T14:36:29;5.40;;;1.20;;
6033;SDS011;3045;43.226;27.858;2022-07-19T14:38:56;1.67;;;1.00;;
6033;SDS011;3045;43.226;27.858;2022-07-19T14:41:23;1.00;;;1.00;;
6033;SDS011;3045;43.226;27.858;2022-07-19T14:47:08;2.75;;;1.10;;
6033;SDS011;3045;43.226;27.858;2022-07-19T14:49:51;1.80;;;1.10;;
6033;SDS011;3045;43.226;27.858;2022-07-19T14:52:19;3.28;;;1.30;;
6033;SDS011;3045;43.226;27.858;2022-07-19T14:55:01;1.13;;;1.02;;
6033;SDS011;3045;43.226;27.858;2022-07-19T14:57:28;2.05;;;0.88;;
6033;SDS011;3045;43.226;27.858;2022-07-19T14:59:55;2.50;;;1.33;;
6033;SDS011;3045;43.226;27.858;2022-07-19T15:02:22;1.45;;;1.20;;
6033;SDS011;3045;43.226;27.858;2022-07-19T15:04:50;2.75;;;1.13;;
6033;SDS011;3045;43.226;27.858;2022-07-19T15:07:17;3.78;;;1.10;;
6033;SDS011;3045;43.226;27.858;2022-07-19T15:09:45;2.40;;;1.38;;
6033;SDS011;3045;43.226;27.858;2022-07-19T15:12:14;0.80;;;0.80;;
6033;SDS011;3045;43.226;27.858;2022-07-19T15:14:41;1.60;;;1.10;;
6033;SDS011;3045;43.226;27.858;2022-07-19T15:17:08;1.52;;;0.90;;
6033;SDS011;3045;43.226;27.858;2022-07-19T15:19:35;0.82;;;0.82;;
6033;SDS011;3045;43.226;27.858;2022-07-19T15:22:02;1.00;;;1.00;;
6033;SDS011;3045;43.226;27.858;2022-07-19T15:24:29;0.90;;;0.88;;
6033;SDS011;3045;43.226;27.858;2022-07-19T15:26:57;3.08;;;0.77;;
6033;SDS011;3045;43.226;27.858;2022-07-19T15:29:24;0.85;;;0.85;;
6033;SDS011;3045;43.226;27.858;2022-07-19T15:31:51;2.92;;;1.10;;
6033;SDS011;3045;43.226;27.858;2022-07-19T15:34:18;3.38;;;1.13;;
6033;SDS011;3045;43.226;27.858;2022-07-19T15:36:45;1.67;;;1.10;;